createdAt,value
2022-12-26T00:00:31.136Z,12.30
2022-12-26T00:01:30.942Z,12.28
2022-12-26T00:02:31.047Z,12.25
2022-12-26T00:03:31.105Z,12.29
2022-12-26T00:04:50.728Z,12.28
2022-12-26T00:05:31.857Z,12.28
2022-12-26T00:06:30.986Z,12.28
2022-12-26T00:07:30.867Z,12.29
2022-12-26T00:08:30.897Z,12.28
2022-12-26T00:09:31.773Z,12.26
2022-12-26T00:10:30.896Z,12.28
2022-12-26T00:11:30.883Z,12.29
2022-12-26T00:12:30.801Z,12.28
2022-12-26T00:13:38.717Z,12.26
2022-12-26T00:14:31.820Z,12.26
2022-12-26T00:15:30.753Z,12.29
2022-12-26T00:16:30.759Z,12.28
2022-12-26T00:17:30.757Z,12.25
2022-12-26T00:18:30.705Z,12.26
2022-12-26T00:19:30.697Z,12.25
2022-12-26T00:20:30.702Z,12.21
2022-12-26T00:21:31.676Z,12.23
2022-12-26T00:22:30.655Z,12.21
2022-12-26T00:23:30.686Z,12.25
2022-12-26T00:24:30.644Z,12.25
2022-12-26T00:25:30.648Z,12.25
2022-12-26T00:26:30.629Z,12.25
2022-12-26T00:27:30.616Z,12.23
2022-12-26T00:28:30.611Z,12.23
2022-12-26T00:29:30.591Z,12.21
2022-12-26T00:30:30.608Z,12.23
2022-12-26T00:31:30.618Z,12.21
2022-12-26T00:32:30.581Z,12.20
2022-12-26T00:33:30.554Z,12.25
2022-12-26T00:34:30.546Z,12.18
2022-12-26T00:35:30.550Z,12.20
2022-12-26T00:36:30.504Z,12.21
2022-12-26T00:37:30.490Z,12.20
2022-12-26T00:38:30.487Z,12.21
2022-12-26T00:39:30.500Z,12.20
2022-12-26T00:40:30.468Z,12.18
2022-12-26T00:41:30.462Z,12.20
2022-12-26T00:42:30.439Z,12.20
2022-12-26T00:43:30.426Z,12.20
2022-12-26T00:44:30.423Z,12.21
2022-12-26T00:45:30.401Z,12.18
2022-12-26T00:46:30.433Z,12.15
2022-12-26T00:47:30.379Z,12.20
2022-12-26T00:48:30.405Z,12.17
2022-12-26T00:50:14.211Z,12.20
2022-12-26T00:50:34.853Z,12.17
2022-12-26T00:51:30.339Z,12.17
2022-12-26T00:52:30.393Z,12.17
2022-12-26T00:53:30.322Z,12.17
2022-12-26T00:54:30.317Z,12.18
2022-12-26T00:55:30.285Z,12.17
2022-12-26T00:56:30.337Z,12.15
2022-12-26T00:57:30.268Z,12.17
2022-12-26T00:58:30.264Z,12.15
2022-12-26T00:59:30.264Z,12.17
2022-12-26T01:00:30.387Z,12.15
2022-12-26T01:01:30.327Z,12.17
2022-12-26T01:02:30.408Z,12.17
2022-12-26T01:03:30.279Z,12.17
2022-12-26T01:04:30.194Z,12.15
2022-12-26T01:05:30.192Z,12.15
2022-12-26T01:06:30.200Z,12.17
2022-12-26T01:07:30.163Z,12.14
2022-12-26T01:08:30.164Z,12.15
2022-12-26T01:09:30.161Z,12.14
2022-12-26T01:10:30.145Z,12.15
2022-12-26T01:11:30.134Z,12.15
2022-12-26T01:12:30.103Z,12.15
2022-12-26T01:13:30.093Z,12.17
2022-12-26T01:14:30.085Z,12.17
2022-12-26T01:15:30.095Z,12.15
2022-12-26T01:16:30.126Z,12.15
2022-12-26T01:17:30.055Z,12.15
2022-12-26T01:18:30.056Z,12.14
2022-12-26T01:19:30.025Z,12.14
2022-12-26T01:20:30.036Z,12.12
2022-12-26T01:21:30.019Z,12.14
2022-12-26T01:22:30.010Z,12.14
2022-12-26T01:23:29.983Z,12.12
2022-12-26T01:24:29.997Z,12.14
2022-12-26T01:25:29.968Z,12.15
2022-12-26T01:26:29.964Z,12.11
2022-12-26T01:27:30.003Z,12.15
2022-12-26T01:28:29.947Z,12.12
2022-12-26T01:29:29.932Z,12.14
2022-12-26T01:30:29.905Z,12.14
2022-12-26T01:31:29.979Z,12.12
2022-12-26T01:32:29.894Z,12.11
2022-12-26T01:33:29.895Z,12.15
2022-12-26T01:34:29.893Z,12.12
2022-12-26T01:35:29.855Z,12.12
2022-12-26T01:36:29.868Z,12.14
2022-12-26T01:37:29.822Z,12.12
2022-12-26T01:38:29.826Z,12.11
2022-12-26T01:39:29.823Z,12.10
2022-12-26T01:40:29.817Z,12.10
2022-12-26T01:41:29.834Z,12.11
2022-12-26T01:42:29.780Z,12.11
2022-12-26T01:43:29.772Z,12.10
2022-12-26T01:44:29.803Z,12.08
2022-12-26T01:45:29.828Z,12.12
2022-12-26T01:46:29.783Z,12.10
2022-12-26T01:47:29.732Z,12.08
2022-12-26T01:48:29.754Z,12.05
2022-12-26T01:49:29.735Z,12.08
2022-12-26T01:50:29.686Z,12.08
2022-12-26T01:51:29.701Z,12.07
2022-12-26T01:52:29.670Z,12.07
2022-12-26T01:53:29.810Z,12.07
2022-12-26T01:54:37.867Z,12.02
2022-12-26T01:55:30.642Z,12.03
2022-12-26T01:56:29.655Z,12.05
2022-12-26T01:57:29.612Z,12.03
2022-12-26T01:58:29.612Z,12.02
2022-12-26T01:59:29.582Z,12.00
2022-12-26T02:00:29.593Z,12.03
2022-12-26T02:01:29.714Z,12.00
2022-12-26T02:02:29.647Z,12.00
2022-12-26T02:03:29.645Z,12.02
2022-12-26T02:04:29.557Z,12.00
2022-12-26T02:05:29.523Z,11.99
2022-12-26T02:06:29.536Z,11.99
2022-12-26T02:07:29.516Z,12.00
2022-12-26T02:08:29.498Z,11.96
2022-12-26T02:09:29.494Z,11.96
2022-12-26T02:10:29.479Z,11.93
2022-12-26T02:11:29.484Z,11.96
2022-12-26T02:12:35.508Z,11.95
2022-12-26T02:13:30.441Z,11.93
2022-12-26T02:14:29.429Z,11.96
2022-12-26T02:15:29.469Z,11.93
2022-12-26T02:16:29.472Z,11.91
2022-12-26T02:17:29.407Z,11.93
2022-12-26T02:18:29.388Z,11.93
2022-12-26T02:19:29.360Z,11.91
2022-12-26T02:20:29.383Z,11.91
2022-12-26T02:21:29.341Z,11.93
2022-12-26T02:22:29.411Z,11.89
2022-12-26T02:23:29.324Z,11.91
2022-12-26T02:24:29.320Z,11.91
2022-12-26T02:25:29.305Z,11.88
2022-12-26T02:26:29.327Z,11.88
2022-12-26T02:27:29.311Z,11.88
2022-12-26T02:28:29.296Z,11.89
2022-12-26T02:29:29.264Z,11.89
2022-12-26T02:30:29.253Z,11.86
2022-12-26T02:31:29.287Z,11.88
2022-12-26T02:32:29.258Z,11.88
2022-12-26T02:33:29.212Z,11.89
2022-12-26T02:34:29.211Z,11.89
2022-12-26T02:35:29.206Z,11.89
2022-12-26T02:36:29.213Z,11.89
2022-12-26T02:37:29.200Z,11.91
2022-12-26T02:38:29.166Z,11.88
2022-12-26T02:39:44.061Z,11.89
2022-12-26T02:40:30.138Z,11.88
2022-12-26T02:41:29.124Z,11.86
2022-12-26T02:42:29.156Z,11.86
2022-12-26T02:43:29.134Z,11.89
2022-12-26T02:44:29.108Z,11.89
2022-12-26T02:45:29.077Z,11.88
2022-12-26T02:46:29.125Z,11.86
2022-12-26T02:47:29.062Z,11.88
2022-12-26T02:48:29.070Z,11.86
2022-12-26T02:49:29.087Z,11.86
2022-12-26T02:50:29.061Z,11.85
2022-12-26T02:51:29.031Z,11.85
2022-12-26T02:52:29.028Z,11.85
2022-12-26T02:53:29.003Z,11.85
2022-12-26T02:54:29.638Z,11.85
2022-12-26T02:55:28.980Z,11.85
2022-12-26T02:56:28.964Z,11.85
2022-12-26T02:57:28.979Z,11.85
2022-12-26T02:58:28.938Z,11.85
2022-12-26T02:59:53.705Z,11.85
2022-12-26T03:00:29.970Z,11.83
2022-12-26T03:01:29.001Z,11.83
2022-12-26T03:02:29.245Z,11.83
2022-12-26T03:03:28.977Z,11.83
2022-12-26T03:04:28.872Z,11.81
2022-12-26T03:05:28.859Z,11.83
2022-12-26T03:06:28.848Z,11.81
2022-12-26T03:07:28.861Z,11.83
2022-12-26T03:08:28.829Z,11.83
2022-12-26T03:09:28.821Z,11.83
2022-12-26T03:10:28.805Z,11.83
2022-12-26T03:11:28.847Z,11.85
2022-12-26T03:12:28.821Z,11.85
2022-12-26T03:13:28.771Z,11.83
2022-12-26T03:14:28.762Z,11.80
2022-12-26T03:15:28.767Z,11.83
2022-12-26T03:16:28.764Z,11.83
2022-12-26T03:17:28.753Z,11.83
2022-12-26T03:18:58.451Z,11.81
2022-12-26T03:19:29.716Z,11.85
2022-12-26T03:20:28.693Z,11.85
2022-12-26T03:21:28.684Z,11.83
2022-12-26T03:22:28.701Z,11.83
2022-12-26T03:23:28.677Z,11.85
2022-12-26T03:24:28.651Z,11.80
2022-12-26T03:25:28.640Z,11.83
2022-12-26T03:26:28.628Z,11.83
2022-12-26T03:27:28.654Z,11.81
2022-12-26T03:28:28.611Z,11.81
2022-12-26T03:29:28.597Z,11.80
2022-12-26T03:30:28.641Z,11.80
2022-12-26T03:31:28.578Z,11.83
2022-12-26T03:32:28.563Z,11.80
2022-12-26T03:33:28.569Z,11.81
2022-12-26T03:34:28.550Z,11.80
2022-12-26T03:35:28.567Z,11.80
2022-12-26T03:36:28.519Z,11.81
2022-12-26T03:37:48.305Z,11.77
2022-12-26T03:38:29.509Z,11.80
2022-12-26T03:39:28.489Z,11.78
2022-12-26T03:40:28.519Z,11.78
2022-12-26T03:41:28.469Z,11.78
2022-12-26T03:42:28.466Z,11.76
2022-12-26T03:43:28.458Z,11.77
2022-12-26T03:44:28.446Z,11.76
2022-12-26T03:45:28.428Z,11.77
2022-12-26T03:46:28.502Z,11.76
2022-12-26T03:47:28.407Z,11.77
2022-12-26T03:48:28.401Z,11.77
2022-12-26T03:49:28.392Z,11.76
2022-12-26T03:50:28.367Z,11.76
2022-12-26T03:51:28.373Z,11.76
2022-12-26T03:52:28.337Z,11.74
2022-12-26T03:53:28.354Z,11.76
2022-12-26T03:54:28.327Z,11.74
2022-12-26T03:55:28.318Z,11.74
2022-12-26T03:56:28.298Z,11.73
2022-12-26T03:57:28.299Z,11.74
2022-12-26T03:58:28.297Z,11.73
2022-12-26T03:59:28.296Z,11.73
2022-12-26T04:00:28.257Z,11.73
2022-12-26T04:01:28.336Z,11.71
2022-12-26T04:02:28.335Z,11.73
2022-12-26T04:03:28.304Z,11.70
2022-12-26T04:04:28.216Z,11.70
2022-12-26T04:05:28.201Z,11.71
2022-12-26T04:06:28.179Z,11.68
2022-12-26T04:07:28.180Z,11.71
2022-12-26T04:08:28.189Z,11.73
2022-12-26T04:09:28.150Z,11.70
2022-12-26T04:10:28.143Z,11.67
2022-12-26T04:11:28.129Z,11.70
2022-12-26T04:12:28.135Z,11.67
2022-12-26T04:13:28.122Z,11.68
2022-12-26T04:14:28.088Z,11.67
2022-12-26T04:15:28.138Z,11.68
2022-12-26T04:16:28.078Z,11.67
2022-12-26T04:17:28.067Z,11.65
2022-12-26T04:18:28.067Z,11.63
2022-12-26T04:19:28.052Z,11.59
2022-12-26T04:20:28.032Z,11.60
2022-12-26T04:21:28.030Z,11.60
2022-12-26T04:22:28.001Z,11.60
2022-12-26T04:23:28.006Z,11.58
2022-12-26T04:24:27.978Z,11.58
2022-12-26T04:25:50.909Z,11.59
2022-12-26T04:26:28.956Z,11.53
2022-12-26T04:27:27.998Z,11.56
2022-12-26T04:28:27.950Z,11.55
2022-12-26T04:29:27.937Z,11.53
2022-12-26T04:30:27.931Z,11.51
2022-12-26T04:31:28.050Z,11.52
2022-12-26T04:32:27.895Z,11.51
2022-12-26T04:33:27.913Z,11.52
2022-12-26T04:34:27.866Z,11.49
2022-12-26T04:35:27.873Z,11.49
2022-12-26T04:36:27.849Z,11.48
2022-12-26T04:37:27.836Z,11.43
2022-12-26T04:38:27.855Z,11.44
2022-12-26T04:39:27.824Z,11.44
2022-12-26T04:40:27.801Z,11.43
2022-12-26T04:41:27.797Z,11.41
2022-12-26T04:42:27.778Z,11.40
2022-12-26T04:43:48.264Z,11.38
2022-12-26T04:44:28.762Z,11.40
2022-12-26T04:45:27.744Z,11.37
2022-12-26T04:46:27.750Z,11.37
2022-12-26T04:47:27.738Z,11.35
2022-12-26T04:48:27.714Z,11.33
2022-12-26T04:49:27.713Z,11.33
2022-12-26T04:50:27.694Z,11.33
2022-12-26T04:51:27.680Z,11.33
2022-12-26T04:52:27.670Z,11.31
2022-12-26T04:53:27.667Z,11.27
2022-12-26T04:54:27.646Z,11.26
2022-12-26T04:55:27.623Z,11.26
2022-12-26T04:56:27.637Z,11.27
2022-12-26T04:57:27.614Z,11.26
2022-12-26T04:58:27.628Z,11.22
2022-12-26T04:59:27.599Z,11.23
2022-12-26T05:00:27.574Z,11.22
2022-12-26T05:01:27.789Z,11.20
2022-12-26T05:02:27.736Z,11.20
2022-12-26T05:03:27.615Z,11.20
2022-12-26T05:04:27.538Z,11.18
2022-12-26T05:05:27.520Z,11.18
2022-12-26T05:06:27.521Z,11.16
2022-12-26T05:07:27.503Z,11.19
2022-12-26T05:08:27.513Z,11.19
2022-12-26T05:09:27.490Z,11.18
2022-12-26T05:10:27.459Z,11.16
2022-12-26T05:11:27.465Z,11.16
2022-12-26T05:12:27.470Z,11.16
2022-12-26T05:13:27.431Z,11.16
2022-12-26T05:14:27.434Z,11.18
2022-12-26T05:15:27.408Z,11.19
2022-12-26T05:16:27.474Z,11.19
2022-12-26T05:17:27.393Z,11.19
2022-12-26T05:18:27.397Z,11.20
2022-12-26T05:19:27.371Z,11.22
2022-12-26T05:20:27.349Z,11.20
2022-12-26T05:21:27.363Z,11.22
2022-12-26T05:22:27.342Z,11.20
2022-12-26T05:23:27.330Z,11.22
2022-12-26T05:24:27.331Z,11.23
2022-12-26T05:25:27.290Z,11.22
2022-12-26T05:26:27.277Z,11.25
2022-12-26T05:27:27.296Z,11.23
2022-12-26T05:28:27.251Z,11.22
2022-12-26T05:29:27.307Z,11.26
2022-12-26T05:30:27.231Z,11.23
2022-12-26T05:31:32.944Z,11.26
2022-12-26T05:32:28.244Z,11.26
2022-12-26T05:33:27.236Z,11.26
2022-12-26T05:34:27.208Z,11.27
2022-12-26T05:35:27.189Z,11.27
2022-12-26T05:36:27.165Z,11.26
2022-12-26T05:37:27.168Z,11.30
2022-12-26T05:38:27.143Z,11.26
2022-12-26T05:39:27.187Z,11.30
2022-12-26T05:40:27.157Z,11.27
2022-12-26T05:41:27.124Z,11.31
2022-12-26T05:42:27.114Z,11.27
2022-12-26T05:43:27.119Z,11.26
2022-12-26T05:44:27.116Z,11.30
2022-12-26T05:45:27.095Z,11.30
2022-12-26T05:46:27.117Z,11.26
2022-12-26T05:47:27.090Z,11.27
2022-12-26T05:48:27.040Z,11.25
2022-12-26T05:49:27.055Z,11.23
2022-12-26T05:50:27.022Z,11.23
2022-12-26T05:51:27.059Z,11.25
2022-12-26T05:52:27.036Z,11.26
2022-12-26T05:53:26.983Z,11.20
2022-12-26T05:54:26.981Z,11.23
2022-12-26T05:55:26.964Z,11.23
2022-12-26T05:56:26.954Z,11.20
2022-12-26T05:57:26.942Z,11.22
2022-12-26T05:58:26.922Z,11.22
2022-12-26T05:59:26.930Z,11.22
2022-12-26T06:00:26.903Z,11.20
2022-12-26T06:01:26.938Z,11.20
2022-12-26T06:02:27.063Z,11.19
2022-12-26T06:03:26.927Z,11.19
2022-12-26T06:04:26.933Z,11.20
2022-12-26T06:05:26.860Z,11.20
2022-12-26T06:06:26.871Z,11.20
2022-12-26T06:07:26.854Z,11.20
2022-12-26T06:08:26.831Z,11.19
2022-12-26T06:09:26.829Z,11.23
2022-12-26T06:10:26.795Z,11.19
2022-12-26T06:11:27.039Z,11.19
2022-12-26T06:12:26.779Z,11.20
2022-12-26T06:13:26.810Z,11.20
2022-12-26T06:14:26.767Z,11.22
2022-12-26T06:15:26.753Z,11.20
2022-12-26T06:16:26.831Z,11.23
2022-12-26T06:17:26.740Z,11.22
2022-12-26T06:18:26.703Z,11.20
2022-12-26T06:19:26.712Z,11.22
2022-12-26T06:20:26.720Z,11.22
2022-12-26T06:21:26.673Z,11.23
2022-12-26T06:22:26.664Z,11.22
2022-12-26T06:23:26.649Z,11.23
2022-12-26T06:24:26.638Z,11.23
2022-12-26T06:25:26.691Z,11.23
2022-12-26T06:26:26.619Z,11.25
2022-12-26T06:27:26.609Z,11.22
2022-12-26T06:28:26.589Z,11.23
2022-12-26T06:29:26.622Z,11.23
2022-12-26T06:30:26.571Z,11.22
2022-12-26T06:31:26.594Z,11.23
2022-12-26T06:32:26.575Z,11.23
2022-12-26T06:33:26.547Z,11.22
2022-12-26T06:34:26.541Z,11.23
2022-12-26T06:35:26.531Z,11.23
2022-12-26T06:36:26.499Z,11.22
2022-12-26T06:37:26.499Z,11.23
2022-12-26T06:38:26.480Z,11.22
2022-12-26T06:39:26.478Z,11.23
2022-12-26T06:40:26.488Z,11.20
2022-12-26T06:41:26.460Z,11.20
2022-12-26T06:42:26.454Z,11.22
2022-12-26T06:43:26.438Z,11.20
2022-12-26T06:44:26.438Z,11.20
2022-12-26T06:45:26.410Z,11.22
2022-12-26T06:46:26.487Z,11.19
2022-12-26T06:47:26.386Z,11.19
2022-12-26T06:48:26.388Z,11.20
2022-12-26T06:49:32.428Z,11.19
2022-12-26T06:50:27.372Z,11.19
2022-12-26T06:51:26.336Z,11.19
2022-12-26T06:52:26.318Z,11.19
2022-12-26T06:53:26.317Z,11.18
2022-12-26T06:54:26.318Z,11.15
2022-12-26T06:55:26.316Z,11.15
2022-12-26T06:56:26.285Z,11.18
2022-12-26T06:57:26.270Z,11.15
2022-12-26T06:58:26.269Z,11.16
2022-12-26T06:59:26.256Z,11.16
2022-12-26T07:00:26.298Z,11.15
2022-12-26T07:01:26.386Z,11.13
2022-12-26T07:02:26.281Z,11.13
2022-12-26T07:03:26.189Z,11.18
2022-12-26T07:04:26.128Z,11.15
2022-12-26T07:05:26.138Z,11.15
2022-12-26T07:06:26.144Z,11.16
2022-12-26T07:07:26.104Z,11.15
2022-12-26T07:08:26.093Z,11.16
2022-12-26T07:09:33.145Z,11.13
2022-12-26T07:10:27.077Z,11.15
2022-12-26T07:11:26.184Z,11.13
2022-12-26T07:12:26.067Z,11.15
2022-12-26T07:13:26.039Z,11.15
2022-12-26T07:14:26.030Z,11.13
2022-12-26T07:15:26.026Z,11.15
2022-12-26T07:16:26.072Z,11.15
2022-12-26T07:17:25.984Z,11.16
2022-12-26T07:18:25.992Z,11.12
2022-12-26T07:19:25.983Z,11.15
2022-12-26T07:20:26.016Z,11.15
2022-12-26T07:21:25.979Z,11.16
2022-12-26T07:22:25.944Z,11.12
2022-12-26T07:23:25.925Z,11.15
2022-12-26T07:24:25.951Z,11.15
2022-12-26T07:25:25.937Z,11.15
2022-12-26T07:26:25.906Z,11.16
2022-12-26T07:27:26.229Z,11.15
2022-12-26T07:28:25.871Z,11.15
2022-12-26T07:29:25.893Z,11.18
2022-12-26T07:30:25.876Z,11.15
2022-12-26T07:31:25.910Z,11.15
2022-12-26T07:32:25.826Z,11.13
2022-12-26T07:33:25.855Z,11.18
2022-12-26T07:34:31.188Z,11.16
2022-12-26T07:35:26.805Z,11.16
2022-12-26T07:36:25.786Z,11.16
2022-12-26T07:37:25.765Z,11.18
2022-12-26T07:38:25.806Z,11.15
2022-12-26T07:39:25.768Z,11.16
2022-12-26T07:40:25.817Z,11.16
2022-12-26T07:41:25.731Z,11.15
2022-12-26T07:42:25.744Z,11.15
2022-12-26T07:43:25.697Z,11.15
2022-12-26T07:44:25.694Z,11.13
2022-12-26T07:45:25.771Z,11.18
2022-12-26T07:46:25.743Z,11.10
2022-12-26T07:47:25.687Z,11.13
2022-12-26T07:48:25.645Z,11.12
2022-12-26T07:49:25.626Z,11.10
2022-12-26T07:50:25.631Z,11.10
2022-12-26T07:51:25.633Z,11.12
2022-12-26T07:52:25.605Z,11.10
2022-12-26T07:53:25.627Z,11.10
2022-12-26T07:54:25.583Z,11.10
2022-12-26T07:55:25.567Z,11.12
2022-12-26T07:56:25.583Z,11.12
2022-12-26T07:58:26.548Z,11.08
2022-12-26T07:59:25.525Z,11.12
2022-12-26T08:00:25.525Z,11.08
2022-12-26T08:01:25.653Z,11.12
2022-12-26T08:02:25.736Z,11.12
2022-12-26T08:03:25.586Z,11.10
2022-12-26T08:04:25.474Z,11.10
2022-12-26T08:05:25.453Z,11.13
2022-12-26T08:06:46.448Z,11.12
2022-12-26T08:07:25.431Z,11.12
2022-12-26T08:08:25.433Z,11.16
2022-12-26T08:09:25.415Z,11.16
2022-12-26T08:10:25.404Z,11.15
2022-12-26T08:11:25.392Z,11.16
2022-12-26T08:12:25.499Z,11.16
2022-12-26T08:13:25.374Z,11.16
2022-12-26T08:14:25.384Z,11.16
2022-12-26T08:15:25.388Z,11.18
2022-12-26T08:16:25.461Z,11.15
2022-12-26T08:17:25.312Z,11.15
2022-12-26T08:18:25.330Z,11.16
2022-12-26T08:19:25.293Z,11.15
2022-12-26T08:20:25.316Z,11.16
2022-12-26T08:21:25.282Z,11.16
2022-12-26T08:22:25.300Z,11.15
2022-12-26T08:23:25.266Z,11.15
2022-12-26T08:24:25.257Z,11.15
2022-12-26T08:25:25.222Z,11.16
2022-12-26T08:26:25.232Z,11.16
2022-12-26T08:27:25.216Z,11.18
2022-12-26T08:28:25.244Z,11.20
2022-12-26T08:29:25.179Z,11.18
2022-12-26T08:30:25.179Z,11.18
2022-12-26T08:32:25.157Z,11.20
2022-12-26T08:33:25.160Z,11.23
2022-12-26T08:34:25.129Z,11.23
2022-12-26T08:35:25.147Z,11.25
2022-12-26T08:36:25.122Z,11.26
2022-12-26T08:37:25.131Z,11.26
2022-12-26T08:38:29.782Z,11.26
2022-12-26T08:39:26.071Z,11.31
2022-12-26T08:40:41.832Z,11.30
2022-12-26T08:41:26.172Z,11.33
2022-12-26T08:42:25.054Z,11.33
2022-12-26T08:43:58.463Z,11.34
2022-12-26T08:44:27.591Z,11.34
2022-12-26T08:45:25.010Z,11.35
2022-12-26T08:46:25.042Z,11.37
2022-12-26T08:47:25.016Z,11.38
2022-12-26T08:48:25.130Z,11.41
2022-12-26T08:49:24.984Z,11.41
2022-12-26T08:50:25.081Z,11.40
2022-12-26T08:51:25.164Z,11.43
2022-12-26T08:52:24.933Z,11.45
2022-12-26T08:53:25.859Z,11.45
2022-12-26T08:54:25.021Z,11.48
2022-12-26T08:55:24.964Z,11.48
2022-12-26T08:56:24.972Z,11.48
2022-12-26T08:57:24.876Z,11.51
2022-12-26T08:58:24.926Z,11.49
2022-12-26T08:59:24.852Z,11.51
2022-12-26T09:00:24.950Z,11.51
2022-12-26T09:01:25.037Z,11.55
2022-12-26T09:02:25.055Z,11.53
2022-12-26T09:03:24.844Z,11.58
2022-12-26T09:04:24.820Z,11.55
2022-12-26T09:05:24.819Z,11.58
2022-12-26T09:06:24.789Z,11.58
2022-12-26T09:07:24.780Z,11.58
2022-12-26T09:08:24.764Z,11.60
2022-12-26T09:09:24.753Z,11.62
2022-12-26T09:10:25.028Z,11.58
2022-12-26T09:11:24.722Z,11.63
2022-12-26T09:12:24.720Z,11.63
2022-12-26T09:13:24.703Z,11.67
2022-12-26T09:14:24.732Z,11.68
2022-12-26T09:15:24.679Z,11.70
2022-12-26T09:16:24.730Z,11.67
2022-12-26T09:17:24.739Z,11.70
2022-12-26T09:18:24.686Z,11.68
2022-12-26T09:19:24.657Z,11.73
2022-12-26T09:20:24.635Z,11.70
2022-12-26T09:21:24.612Z,11.74
2022-12-26T09:22:24.611Z,11.80
2022-12-26T09:23:24.598Z,11.81
2022-12-26T09:24:24.635Z,11.85
2022-12-26T09:25:24.560Z,11.91
2022-12-26T09:26:24.588Z,11.96
2022-12-26T09:27:24.568Z,12.03
2022-12-26T09:28:24.530Z,12.11
2022-12-26T09:29:24.628Z,12.14
2022-12-26T09:30:24.526Z,12.20
2022-12-26T09:31:24.537Z,12.26
2022-12-26T09:32:24.529Z,12.30
2022-12-26T09:33:24.480Z,12.35
2022-12-26T09:34:24.474Z,12.43
2022-12-26T09:35:24.468Z,12.50
2022-12-26T09:36:25.099Z,12.53
2022-12-26T09:37:24.457Z,12.54
2022-12-26T09:38:24.806Z,12.55
2022-12-26T09:39:24.420Z,12.55
2022-12-26T09:40:24.518Z,12.57
2022-12-26T09:41:24.390Z,12.58
2022-12-26T09:42:24.404Z,12.63
2022-12-26T09:43:24.550Z,12.63
2022-12-26T09:44:24.379Z,12.65
2022-12-26T09:45:24.370Z,12.63
2022-12-26T09:46:25.037Z,12.62
2022-12-26T09:47:24.329Z,12.61
2022-12-26T09:48:24.317Z,12.66
2022-12-26T09:49:24.309Z,12.68
2022-12-26T09:50:24.332Z,12.69
2022-12-26T09:51:24.299Z,12.73
2022-12-26T09:52:25.352Z,12.75
2022-12-26T09:53:24.248Z,12.76
2022-12-26T09:54:24.265Z,12.78
2022-12-26T09:55:24.264Z,12.80
2022-12-26T09:57:25.289Z,12.83
2022-12-26T09:58:24.283Z,12.88
2022-12-26T09:59:24.264Z,12.87
2022-12-26T10:00:24.206Z,12.84
2022-12-26T10:01:24.262Z,12.86
2022-12-26T10:02:24.355Z,12.86
2022-12-26T10:03:24.146Z,12.88
2022-12-26T10:04:29.164Z,12.90
2022-12-26T10:05:25.134Z,12.90
2022-12-26T10:06:24.115Z,12.91
2022-12-26T10:07:24.134Z,12.94
2022-12-26T10:08:24.100Z,12.93
2022-12-26T10:09:24.202Z,12.94
2022-12-26T10:10:24.088Z,12.93
2022-12-26T10:11:24.107Z,12.91
2022-12-26T10:12:24.071Z,12.93
2022-12-26T10:13:24.043Z,12.95
2022-12-26T10:14:24.056Z,12.95
2022-12-26T10:15:24.043Z,13.01
2022-12-26T10:16:24.043Z,12.99
2022-12-26T10:17:24.009Z,13.01
2022-12-26T10:18:23.993Z,13.03
2022-12-26T10:19:28.696Z,13.03
2022-12-26T10:20:24.968Z,13.05
2022-12-26T10:21:23.957Z,13.03
2022-12-26T10:22:23.948Z,13.03
2022-12-26T10:23:24.079Z,13.03
2022-12-26T10:24:23.923Z,13.06
2022-12-26T10:25:25.419Z,13.05
2022-12-26T10:26:23.898Z,13.11
2022-12-26T10:27:23.902Z,13.11
2022-12-26T10:28:24.119Z,13.12
2022-12-26T10:29:23.873Z,13.16
2022-12-26T10:30:23.859Z,13.17
2022-12-26T10:31:23.871Z,13.20
2022-12-26T10:32:27.848Z,13.20
2022-12-26T10:33:23.828Z,13.21
2022-12-26T10:34:23.812Z,13.23
2022-12-26T10:35:23.817Z,13.28
2022-12-26T10:36:23.813Z,13.28
2022-12-26T10:37:23.819Z,13.30
2022-12-26T10:38:27.507Z,13.31
2022-12-26T10:39:23.768Z,13.33
2022-12-26T10:40:23.758Z,13.30
2022-12-26T10:41:23.738Z,13.27
2022-12-26T10:42:23.720Z,13.23
2022-12-26T10:43:23.959Z,13.23
2022-12-26T10:44:27.583Z,13.23
2022-12-26T10:45:23.719Z,13.23
2022-12-26T10:46:23.729Z,13.21
2022-12-26T10:47:23.733Z,13.23
2022-12-26T10:48:23.671Z,13.23
2022-12-26T10:49:23.648Z,13.26
2022-12-26T10:50:27.418Z,13.23
2022-12-26T10:51:23.662Z,13.24
2022-12-26T10:52:24.139Z,13.27
2022-12-26T10:53:23.687Z,13.27
2022-12-26T10:54:23.627Z,13.26
2022-12-26T10:55:28.730Z,13.27
2022-12-26T10:56:24.610Z,13.27
2022-12-26T10:57:23.700Z,13.28
2022-12-26T10:58:23.588Z,13.28
2022-12-26T10:59:23.738Z,13.30
2022-12-26T11:00:23.612Z,13.30
2022-12-26T11:01:23.604Z,13.31
2022-12-26T11:02:23.705Z,13.33
2022-12-26T11:03:23.611Z,13.31
2022-12-26T11:04:52.899Z,13.33
2022-12-26T11:05:56.994Z,13.33
2022-12-26T11:06:24.466Z,13.31
2022-12-26T11:07:23.446Z,13.36
2022-12-26T11:08:23.471Z,13.31
2022-12-26T11:09:23.416Z,13.33
2022-12-26T11:10:23.446Z,13.33
2022-12-26T11:11:23.404Z,13.33
2022-12-26T11:12:23.440Z,13.36
2022-12-26T11:13:23.534Z,13.36
2022-12-26T11:14:23.868Z,13.36
2022-12-26T11:15:23.362Z,13.36
2022-12-26T11:16:23.444Z,13.33
2022-12-26T11:17:23.340Z,13.36
2022-12-26T11:18:23.381Z,13.31
2022-12-26T11:19:23.340Z,13.31
2022-12-26T11:20:23.315Z,13.31
2022-12-26T11:21:23.375Z,13.28
2022-12-26T11:22:23.315Z,13.26
2022-12-26T11:23:23.315Z,13.26
2022-12-26T11:24:23.320Z,13.23
2022-12-26T11:25:23.260Z,13.24
2022-12-26T11:26:23.273Z,13.20
2022-12-26T11:27:23.239Z,13.23
2022-12-26T11:28:23.225Z,13.20
2022-12-26T11:29:23.241Z,13.20
2022-12-26T11:30:23.194Z,13.20
2022-12-26T11:31:23.267Z,13.21
2022-12-26T11:32:23.180Z,13.24
2022-12-26T11:33:23.185Z,13.28
2022-12-26T11:34:23.178Z,13.37
2022-12-26T11:35:23.159Z,13.42
2022-12-26T11:36:23.142Z,13.45
2022-12-26T11:37:23.199Z,13.47
2022-12-26T11:38:23.145Z,13.47
2022-12-26T11:39:23.222Z,13.49
2022-12-26T11:40:23.113Z,13.54
2022-12-26T11:41:23.080Z,13.55
2022-12-26T11:42:23.069Z,13.58
2022-12-26T11:43:23.094Z,13.60
2022-12-26T11:44:23.054Z,13.62
2022-12-26T11:45:23.042Z,13.62
2022-12-26T11:46:23.071Z,13.67
2022-12-26T11:47:23.079Z,13.71
2022-12-26T11:48:22.998Z,13.76
2022-12-26T11:49:22.989Z,13.79
2022-12-26T11:50:22.972Z,13.79
2022-12-26T11:51:22.981Z,13.79
2022-12-26T11:52:22.964Z,13.79
2022-12-26T11:53:22.975Z,13.79
2022-12-26T11:54:22.949Z,13.78
2022-12-26T11:55:22.955Z,13.76
2022-12-26T11:56:22.926Z,13.75
2022-12-26T11:57:22.923Z,13.76
2022-12-26T11:58:22.959Z,13.75
2022-12-26T11:59:22.897Z,13.76
2022-12-26T12:00:22.882Z,13.75
2022-12-26T12:01:22.915Z,13.75
2022-12-26T12:02:22.964Z,13.75
2022-12-26T12:03:22.922Z,13.75
2022-12-26T12:04:22.845Z,13.76
2022-12-26T12:05:22.814Z,13.75
2022-12-26T12:06:22.817Z,13.71
2022-12-26T12:07:22.854Z,13.76
2022-12-26T12:08:22.782Z,13.76
2022-12-26T12:09:22.789Z,13.78
2022-12-26T12:10:22.782Z,13.73
2022-12-26T12:11:22.764Z,13.76
2022-12-26T12:12:22.742Z,13.71
2022-12-26T12:13:22.743Z,13.67
2022-12-26T12:14:22.765Z,13.62
2022-12-26T12:15:22.719Z,13.62
2022-12-26T12:16:22.755Z,13.61
2022-12-26T12:17:22.687Z,13.60
2022-12-26T12:18:22.681Z,13.57
2022-12-26T12:19:22.679Z,13.50
2022-12-26T12:20:22.655Z,13.49
2022-12-26T12:21:22.638Z,13.47
2022-12-26T12:22:22.657Z,13.43
2022-12-26T12:23:22.629Z,13.45
2022-12-26T12:24:22.627Z,13.42
2022-12-26T12:25:22.607Z,13.42
2022-12-26T12:26:22.595Z,13.37
2022-12-26T12:27:22.590Z,13.39
2022-12-26T12:28:22.576Z,13.37
2022-12-26T12:29:22.573Z,13.30
2022-12-26T12:30:22.569Z,13.23
2022-12-26T12:31:22.636Z,13.23
2022-12-26T12:32:22.526Z,13.16
2022-12-26T12:33:22.529Z,13.13
2022-12-26T12:34:22.525Z,13.08
2022-12-26T12:35:22.506Z,13.06
2022-12-26T12:36:22.498Z,13.06
2022-12-26T12:37:22.507Z,13.08
2022-12-26T12:38:22.461Z,13.05
2022-12-26T12:39:22.518Z,13.06
2022-12-26T12:40:22.429Z,13.05
2022-12-26T12:41:22.475Z,13.02
2022-12-26T12:42:22.421Z,13.05
2022-12-26T12:43:22.415Z,13.02
2022-12-26T12:44:22.405Z,13.02
2022-12-26T12:45:22.409Z,13.02
2022-12-26T12:46:22.380Z,13.01
2022-12-26T12:47:22.359Z,12.99
2022-12-26T12:48:22.384Z,12.99
2022-12-26T12:49:22.357Z,12.94
2022-12-26T12:50:22.324Z,12.90
2022-12-26T12:51:22.337Z,12.91
2022-12-26T12:52:22.300Z,12.88
2022-12-26T12:53:22.297Z,12.88
2022-12-26T12:54:22.330Z,12.84
2022-12-26T12:55:22.273Z,12.84